sensor_id;sensor_type;location;lat;lon;timestamp;pressure;altitude;pressure_sealevel;temperature;humidity
78623;BME280;67943;54.412;9.502;2023-08-30T00:01:33;100668.63;;;13.70;78.72
78623;BME280;67943;54.412;9.502;2023-08-30T00:06:34;100669.25;;;13.54;79.25
78623;BME280;67943;54.412;9.502;2023-08-30T00:11:37;100660.72;;;13.45;79.82
78623;BME280;67943;54.412;9.502;2023-08-30T00:16:39;100669.66;;;13.41;79.94
78623;BME280;67943;54.412;9.502;2023-08-30T00:21:40;100661.84;;;13.38;80.58
78623;BME280;67943;54.412;9.502;2023-08-30T00:26:44;100659.31;;;13.35;82.17
78623;BME280;67943;54.412;9.502;2023-08-30T00:31:45;100657.22;;;13.45;83.64
78623;BME280;67943;54.412;9.502;2023-08-30T00:36:47;100668.31;;;13.55;83.94
78623;BME280;67943;54.412;9.502;2023-08-30T00:41:50;100657.56;;;13.59;84.24
78623;BME280;67943;54.412;9.502;2023-08-30T00:46:52;100654.75;;;13.64;83.84
78623;BME280;67943;54.412;9.502;2023-08-30T00:51:54;100647.91;;;13.58;81.35
78623;BME280;67943;54.412;9.502;2023-08-30T00:56:57;100642.25;;;13.44;80.55
78623;BME280;67943;54.412;9.502;2023-08-30T01:01:59;100648.84;;;13.32;80.93
78623;BME280;67943;54.412;9.502;2023-08-30T01:07:01;100650.66;;;13.30;82.02
78623;BME280;67943;54.412;9.502;2023-08-30T01:12:08;100638.06;;;13.38;83.77
78623;BME280;67943;54.412;9.502;2023-08-30T01:17:13;100621.72;;;13.52;84.95
78623;BME280;67943;54.412;9.502;2023-08-30T01:22:21;100624.81;;;13.63;85.35
78623;BME280;67943;54.412;9.502;2023-08-30T01:27:28;100619.13;;;13.74;85.38
78623;BME280;67943;54.412;9.502;2023-08-30T01:32:33;100608.16;;;13.84;85.33
78623;BME280;67943;54.412;9.502;2023-08-30T01:37:36;100603.41;;;13.93;85.48
78623;BME280;67943;54.412;9.502;2023-08-30T01:42:40;100600.47;;;14.00;85.55
78623;BME280;67943;54.412;9.502;2023-08-30T01:47:46;100603.06;;;14.02;85.87
78623;BME280;67943;54.412;9.502;2023-08-30T01:52:47;100601.06;;;14.08;85.71
78623;BME280;67943;54.412;9.502;2023-08-30T01:57:50;100600.13;;;14.09;85.97
78623;BME280;67943;54.412;9.502;2023-08-30T02:02:52;100589.28;;;14.15;86.01
78623;BME280;67943;54.412;9.502;2023-08-30T02:07:57;100600.72;;;14.16;86.22
78623;BME280;67943;54.412;9.502;2023-08-30T02:13:02;100597.09;;;14.18;86.55
78623;BME280;67943;54.412;9.502;2023-08-30T02:18:04;100589.97;;;14.20;86.59
78623;BME280;67943;54.412;9.502;2023-08-30T02:23:06;100595.16;;;14.24;86.70
78623;BME280;67943;54.412;9.502;2023-08-30T02:28:11;100598.53;;;14.27;86.81
78623;BME280;67943;54.412;9.502;2023-08-30T02:33:13;100577.31;;;14.29;86.81
78623;BME280;67943;54.412;9.502;2023-08-30T02:38:15;100577.25;;;14.30;86.75
78623;BME280;67943;54.412;9.502;2023-08-30T02:43:18;100580.69;;;14.32;86.85
78623;BME280;67943;54.412;9.502;2023-08-30T02:48:20;100572.94;;;14.28;86.91
78623;BME280;67943;54.412;9.502;2023-08-30T02:53:21;100566.03;;;14.24;87.12
78623;BME280;67943;54.412;9.502;2023-08-30T02:58:24;100561.66;;;14.23;87.37
78623;BME280;67943;54.412;9.502;2023-08-30T03:03:26;100565.16;;;14.23;87.78
78623;BME280;67943;54.412;9.502;2023-08-30T03:08:27;100566.72;;;14.29;87.57
78623;BME280;67943;54.412;9.502;2023-08-30T03:13:30;100561.38;;;14.30;87.96
78623;BME280;67943;54.412;9.502;2023-08-30T03:18:31;100556.00;;;14.32;88.08
78623;BME280;67943;54.412;9.502;2023-08-30T03:23:33;100552.56;;;14.30;88.68
78623;BME280;67943;54.412;9.502;2023-08-30T03:28:37;100553.31;;;14.33;89.08
78623;BME280;67943;54.412;9.502;2023-08-30T03:33:39;100549.66;;;14.36;89.21
78623;BME280;67943;54.412;9.502;2023-08-30T03:38:42;100545.13;;;14.39;88.71
78623;BME280;67943;54.412;9.502;2023-08-30T03:43:45;100550.31;;;14.42;88.66
78623;BME280;67943;54.412;9.502;2023-08-30T03:48:46;100547.94;;;14.35;89.55
78623;BME280;67943;54.412;9.502;2023-08-30T03:53:48;100538.59;;;14.48;89.07
78623;BME280;67943;54.412;9.502;2023-08-30T03:58:50;100541.59;;;14.39;89.62
78623;BME280;67943;54.412;9.502;2023-08-30T04:03:52;100541.56;;;14.40;89.33
78623;BME280;67943;54.412;9.502;2023-08-30T04:08:53;100527.03;;;14.29;89.82
78623;BME280;67943;54.412;9.502;2023-08-30T04:13:56;100522.66;;;14.28;89.63
78623;BME280;67943;54.412;9.502;2023-08-30T04:18:58;100519.38;;;14.21;90.28
78623;BME280;67943;54.412;9.502;2023-08-30T04:24:00;100517.41;;;14.26;90.46
78623;BME280;67943;54.412;9.502;2023-08-30T04:29:02;100516.44;;;14.29;90.35
78623;BME280;67943;54.412;9.502;2023-08-30T04:34:04;100515.38;;;14.33;90.29
78623;BME280;67943;54.412;9.502;2023-08-30T04:39:05;100517.97;;;14.34;90.20
78623;BME280;67943;54.412;9.502;2023-08-30T04:44:09;100508.91;;;14.40;90.11
78623;BME280;67943;54.412;9.502;2023-08-30T04:49:10;100513.09;;;14.45;89.55
78623;BME280;67943;54.412;9.502;2023-08-30T04:54:12;100524.44;;;14.49;89.22
78623;BME280;67943;54.412;9.502;2023-08-30T04:59:15;100503.97;;;14.52;89.28
78623;BME280;67943;54.412;9.502;2023-08-30T05:04:17;100512.41;;;14.42;89.72
78623;BME280;67943;54.412;9.502;2023-08-30T05:09:18;100493.81;;;14.43;89.75
78623;BME280;67943;54.412;9.502;2023-08-30T05:14:24;100496.97;;;14.51;89.67
78623;BME280;67943;54.412;9.502;2023-08-30T05:19:25;100493.28;;;14.56;89.65
78623;BME280;67943;54.412;9.502;2023-08-30T05:24:27;100486.72;;;14.64;89.31
78623;BME280;67943;54.412;9.502;2023-08-30T05:29:30;100480.03;;;14.76;88.13
78623;BME280;67943;54.412;9.502;2023-08-30T05:34:33;100485.31;;;14.76;87.99
78623;BME280;67943;54.412;9.502;2023-08-30T05:39:35;100485.25;;;14.77;88.52
78623;BME280;67943;54.412;9.502;2023-08-30T05:44:38;100495.56;;;14.83;88.49
78623;BME280;67943;54.412;9.502;2023-08-30T05:49:39;100489.34;;;14.84;88.69
78623;BME280;67943;54.412;9.502;2023-08-30T05:54:41;100488.38;;;14.87;88.48
78623;BME280;67943;54.412;9.502;2023-08-30T05:59:44;100483.66;;;14.94;88.57
78623;BME280;67943;54.412;9.502;2023-08-30T06:04:45;100477.53;;;15.12;87.40
78623;BME280;67943;54.412;9.502;2023-08-30T06:09:46;100487.06;;;15.16;87.66
78623;BME280;67943;54.412;9.502;2023-08-30T06:14:49;100481.22;;;15.28;87.24
78623;BME280;67943;54.412;9.502;2023-08-30T06:19:52;100474.66;;;15.35;87.05
78623;BME280;67943;54.412;9.502;2023-08-30T06:24:54;100470.94;;;15.39;86.84
78623;BME280;67943;54.412;9.502;2023-08-30T06:29:56;100472.13;;;15.52;86.84
78623;BME280;67943;54.412;9.502;2023-08-30T06:34:58;100471.47;;;15.66;86.50
78623;BME280;67943;54.412;9.502;2023-08-30T06:39:59;100475.06;;;15.84;85.44
78623;BME280;67943;54.412;9.502;2023-08-30T06:45:06;100462.75;;;16.00;84.64
78623;BME280;67943;54.412;9.502;2023-08-30T06:50:08;100463.47;;;16.04;84.48
78623;BME280;67943;54.412;9.502;2023-08-30T06:55:09;100457.78;;;16.29;82.92
78623;BME280;67943;54.412;9.502;2023-08-30T07:00:13;100454.28;;;16.45;82.91
78623;BME280;67943;54.412;9.502;2023-08-30T07:05:15;100447.78;;;16.51;81.71
78623;BME280;67943;54.412;9.502;2023-08-30T07:10:17;100459.22;;;16.70;80.84
78623;BME280;67943;54.412;9.502;2023-08-30T07:15:20;100461.03;;;16.85;80.54
78623;BME280;67943;54.412;9.502;2023-08-30T07:20:21;100455.59;;;17.04;79.71
78623;BME280;67943;54.412;9.502;2023-08-30T07:25:23;100459.94;;;17.23;78.88
78623;BME280;67943;54.412;9.502;2023-08-30T07:30:26;100456.69;;;17.33;77.72
78623;BME280;67943;54.412;9.502;2023-08-30T07:35:28;100451.28;;;17.35;78.13
78623;BME280;67943;54.412;9.502;2023-08-30T07:40:29;100446.16;;;17.47;77.81
78623;BME280;67943;54.412;9.502;2023-08-30T07:45:32;100450.84;;;17.42;78.03
78623;BME280;67943;54.412;9.502;2023-08-30T07:50:34;100444.63;;;17.59;76.51
78623;BME280;67943;54.412;9.502;2023-08-30T07:55:35;100438.00;;;17.50;77.71
78623;BME280;67943;54.412;9.502;2023-08-30T08:00:38;100443.78;;;17.74;77.44
78623;BME280;67943;54.412;9.502;2023-08-30T08:05:40;100451.44;;;17.63;76.33
78623;BME280;67943;54.412;9.502;2023-08-30T08:10:42;100447.88;;;17.80;75.15
78623;BME280;67943;54.412;9.502;2023-08-30T08:15:45;100454.72;;;18.00;75.02
78623;BME280;67943;54.412;9.502;2023-08-30T08:20:47;100460.22;;;18.12;73.90
78623;BME280;67943;54.412;9.502;2023-08-30T08:25:48;100467.94;;;18.17;73.71
78623;BME280;67943;54.412;9.502;2023-08-30T08:30:51;100468.56;;;18.36;73.36
78623;BME280;67943;54.412;9.502;2023-08-30T08:35:52;100466.41;;;18.73;71.74
78623;BME280;67943;54.412;9.502;2023-08-30T08:41:01;100461.66;;;18.92;70.53
78623;BME280;67943;54.412;9.502;2023-08-30T08:46:05;100464.91;;;19.26;69.30
78623;BME280;67943;54.412;9.502;2023-08-30T08:51:08;100460.94;;;19.74;68.18
78623;BME280;67943;54.412;9.502;2023-08-30T08:56:11;100459.94;;;20.29;65.18
78623;BME280;67943;54.412;9.502;2023-08-30T09:01:16;100466.81;;;20.72;62.26
78623;BME280;67943;54.412;9.502;2023-08-30T09:06:18;100456.97;;;21.23;61.14
78623;BME280;67943;54.412;9.502;2023-08-30T09:11:20;100456.03;;;21.61;57.28
78623;BME280;67943;54.412;9.502;2023-08-30T09:16:23;100455.00;;;22.11;55.27
78623;BME280;67943;54.412;9.502;2023-08-30T09:21:25;100461.22;;;21.99;51.29
78623;BME280;67943;54.412;9.502;2023-08-30T09:26:26;100464.25;;;21.95;51.25
78623;BME280;67943;54.412;9.502;2023-08-30T09:31:33;100456.41;;;22.04;51.31
78623;BME280;67943;54.412;9.502;2023-08-30T09:36:37;100466.13;;;22.18;50.58
78623;BME280;67943;54.412;9.502;2023-08-30T09:41:41;100469.00;;;21.91;50.61
78623;BME280;67943;54.412;9.502;2023-08-30T09:46:44;100457.84;;;22.21;49.86
78623;BME280;67943;54.412;9.502;2023-08-30T09:51:47;100462.88;;;21.65;51.72
78623;BME280;67943;54.412;9.502;2023-08-30T09:56:50;100462.28;;;20.60;55.52
78623;BME280;67943;54.412;9.502;2023-08-30T10:01:54;100452.41;;;20.08;55.64
78623;BME280;67943;54.412;9.502;2023-08-30T10:06:56;100451.66;;;20.06;56.36
78623;BME280;67943;54.412;9.502;2023-08-30T10:11:59;100457.78;;;20.48;55.86
78623;BME280;67943;54.412;9.502;2023-08-30T10:17:03;100450.91;;;21.82;51.86
78623;BME280;67943;54.412;9.502;2023-08-30T10:22:08;100448.19;;;23.00;47.51
78623;BME280;67943;54.412;9.502;2023-08-30T10:27:16;100435.22;;;24.04;45.18
78623;BME280;67943;54.412;9.502;2023-08-30T10:32:20;100438.53;;;23.64;45.12
78623;BME280;67943;54.412;9.502;2023-08-30T10:37:23;100438.19;;;23.13;45.17
78623;BME280;67943;54.412;9.502;2023-08-30T10:42:25;100438.59;;;22.51;48.22
78623;BME280;67943;54.412;9.502;2023-08-30T10:47:29;100428.44;;;22.08;50.04
78623;BME280;67943;54.412;9.502;2023-08-30T10:52:31;100442.41;;;21.02;51.52
78623;BME280;67943;54.412;9.502;2023-08-30T10:57:32;100436.66;;;20.70;53.31
78623;BME280;67943;54.412;9.502;2023-08-30T11:02:36;100442.81;;;20.45;52.21
78623;BME280;67943;54.412;9.502;2023-08-30T11:07:38;100434.03;;;20.04;53.92
78623;BME280;67943;54.412;9.502;2023-08-30T11:12:40;100433.88;;;19.66;54.42
78623;BME280;67943;54.412;9.502;2023-08-30T11:17:44;100436.69;;;19.77;56.28
78623;BME280;67943;54.412;9.502;2023-08-30T11:22:46;100434.50;;;19.57;55.21
78623;BME280;67943;54.412;9.502;2023-08-30T11:27:48;100435.44;;;20.22;52.83
78623;BME280;67943;54.412;9.502;2023-08-30T11:32:51;100435.31;;;21.39;48.43
78623;BME280;67943;54.412;9.502;2023-08-30T11:37:54;100431.56;;;24.78;41.11
78623;BME280;67943;54.412;9.502;2023-08-30T11:42:56;100430.47;;;25.92;38.82
78623;BME280;67943;54.412;9.502;2023-08-30T11:47:59;100415.56;;;26.26;38.41
78623;BME280;67943;54.412;9.502;2023-08-30T11:53:01;100415.25;;;26.29;37.62
78623;BME280;67943;54.412;9.502;2023-08-30T11:58:03;100404.59;;;27.13;36.46
78623;BME280;67943;54.412;9.502;2023-08-30T12:03:06;100399.09;;;28.48;32.98
78623;BME280;67943;54.412;9.502;2023-08-30T12:08:17;100404.97;;;29.21;31.59
78623;BME280;67943;54.412;9.502;2023-08-30T12:13:20;100400.66;;;26.22;35.01
78623;BME280;67943;54.412;9.502;2023-08-30T12:18:24;100398.28;;;24.49;38.78
78623;BME280;67943;54.412;9.502;2023-08-30T12:23:28;100398.63;;;23.60;41.14
78623;BME280;67943;54.412;9.502;2023-08-30T12:28:31;100406.84;;;22.91;42.94
78623;BME280;67943;54.412;9.502;2023-08-30T12:33:34;100396.81;;;22.82;43.66
78623;BME280;67943;54.412;9.502;2023-08-30T12:38:36;100399.03;;;24.40;41.82
78623;BME280;67943;54.412;9.502;2023-08-30T12:43:37;100391.88;;;27.23;36.00
78623;BME280;67943;54.412;9.502;2023-08-30T12:48:40;100377.94;;;26.15;35.76
78623;BME280;67943;54.412;9.502;2023-08-30T12:53:42;100376.69;;;25.90;37.94
78623;BME280;67943;54.412;9.502;2023-08-30T12:58:43;100368.84;;;26.45;36.14
78623;BME280;67943;54.412;9.502;2023-08-30T13:03:46;100366.63;;;24.20;40.13
78623;BME280;67943;54.412;9.502;2023-08-30T13:08:48;100348.50;;;23.81;40.81
78623;BME280;67943;54.412;9.502;2023-08-30T13:13:50;100346.47;;;23.51;42.09
78623;BME280;67943;54.412;9.502;2023-08-30T13:18:52;100348.31;;;23.07;43.49
78623;BME280;67943;54.412;9.502;2023-08-30T13:23:54;100341.84;;;22.99;43.43
78623;BME280;67943;54.412;9.502;2023-08-30T13:28:55;100345.38;;;22.99;44.31
78623;BME280;67943;54.412;9.502;2023-08-30T13:34:00;100344.97;;;22.48;44.67
78623;BME280;67943;54.412;9.502;2023-08-30T13:39:02;100342.59;;;21.86;45.30
78623;BME280;67943;54.412;9.502;2023-08-30T13:44:05;100339.53;;;21.55;47.59
78623;BME280;67943;54.412;9.502;2023-08-30T13:49:08;100346.38;;;21.60;48.02
78623;BME280;67943;54.412;9.502;2023-08-30T13:54:09;100340.88;;;21.37;47.30
78623;BME280;67943;54.412;9.502;2023-08-30T13:59:11;100338.78;;;21.17;48.81
78623;BME280;67943;54.412;9.502;2023-08-30T14:04:14;100329.31;;;21.00;49.51
78623;BME280;67943;54.412;9.502;2023-08-30T14:09:15;100323.88;;;21.02;49.73
78623;BME280;67943;54.412;9.502;2023-08-30T14:14:17;100338.38;;;21.23;49.95
78623;BME280;67943;54.412;9.502;2023-08-30T14:19:20;100326.53;;;21.38;48.46
78623;BME280;67943;54.412;9.502;2023-08-30T14:24:21;100335.03;;;21.56;48.40
78623;BME280;67943;54.412;9.502;2023-08-30T14:29:23;100328.28;;;21.74;48.26
78623;BME280;67943;54.412;9.502;2023-08-30T14:34:27;100323.44;;;22.03;49.10
78623;BME280;67943;54.412;9.502;2023-08-30T14:39:28;100327.13;;;22.24;46.98
78623;BME280;67943;54.412;9.502;2023-08-30T14:44:30;100332.22;;;22.05;45.97
78623;BME280;67943;54.412;9.502;2023-08-30T14:49:33;100334.84;;;21.94;48.34
78623;BME280;67943;54.412;9.502;2023-08-30T14:54:35;100322.69;;;22.01;49.45
78623;BME280;67943;54.412;9.502;2023-08-30T14:59:36;100316.56;;;21.88;46.65
78623;BME280;67943;54.412;9.502;2023-08-30T15:04:39;100316.19;;;21.58;47.09
78623;BME280;67943;54.412;9.502;2023-08-30T15:09:41;100310.66;;;21.48;47.87
78623;BME280;67943;54.412;9.502;2023-08-30T15:14:42;100316.47;;;21.42;48.04
78623;BME280;67943;54.412;9.502;2023-08-30T15:19:45;100314.19;;;21.25;48.80
78623;BME280;67943;54.412;9.502;2023-08-30T15:24:47;100304.53;;;21.35;49.44
78623;BME280;67943;54.412;9.502;2023-08-30T15:29:48;100307.31;;;21.33;49.68
78623;BME280;67943;54.412;9.502;2023-08-30T15:34:53;100306.47;;;21.33;49.16
78623;BME280;67943;54.412;9.502;2023-08-30T15:39:59;100306.16;;;21.25;49.38
78623;BME280;67943;54.412;9.502;2023-08-30T15:45:04;100303.38;;;21.13;50.68
78623;BME280;67943;54.412;9.502;2023-08-30T15:50:07;100308.34;;;21.07;51.03
78623;BME280;67943;54.412;9.502;2023-08-30T15:55:09;100306.31;;;20.98;52.14
78623;BME280;67943;54.412;9.502;2023-08-30T16:00:11;100307.88;;;20.76;53.60
78623;BME280;67943;54.412;9.502;2023-08-30T16:05:15;100304.16;;;20.66;54.54
78623;BME280;67943;54.412;9.502;2023-08-30T16:10:16;100310.81;;;20.48;52.51
78623;BME280;67943;54.412;9.502;2023-08-30T16:15:18;100314.28;;;20.36;53.72
78623;BME280;67943;54.412;9.502;2023-08-30T16:20:21;100308.72;;;20.26;55.60
78623;BME280;67943;54.412;9.502;2023-08-30T16:25:23;100311.44;;;19.74;57.77
78623;BME280;67943;54.412;9.502;2023-08-30T16:30:27;100307.53;;;19.52;58.40
78623;BME280;67943;54.412;9.502;2023-08-30T16:35:30;100316.31;;;19.40;58.89
78623;BME280;67943;54.412;9.502;2023-08-30T16:40:32;100302.19;;;19.26;59.30
78623;BME280;67943;54.412;9.502;2023-08-30T16:45:33;100294.88;;;19.15;59.74
78623;BME280;67943;54.412;9.502;2023-08-30T16:50:36;100294.31;;;19.10;60.57
78623;BME280;67943;54.412;9.502;2023-08-30T16:55:37;100286.94;;;19.01;62.18
78623;BME280;67943;54.412;9.502;2023-08-30T17:00:39;100294.50;;;19.07;62.41
78623;BME280;67943;54.412;9.502;2023-08-30T17:05:42;100280.59;;;19.16;62.26
78623;BME280;67943;54.412;9.502;2023-08-30T17:10:44;100286.28;;;19.24;62.67
78623;BME280;67943;54.412;9.502;2023-08-30T17:15:46;100276.66;;;19.21;61.84
78623;BME280;67943;54.412;9.502;2023-08-30T17:20:49;100274.84;;;19.22;62.30
78623;BME280;67943;54.412;9.502;2023-08-30T17:25:51;100277.91;;;19.16;61.35
78623;BME280;67943;54.412;9.502;2023-08-30T17:30:52;100276.00;;;19.18;61.37
78623;BME280;67943;54.412;9.502;2023-08-30T17:35:55;100276.97;;;19.17;61.22
78623;BME280;67943;54.412;9.502;2023-08-30T17:40:57;100272.22;;;19.08;61.43
78623;BME280;67943;54.412;9.502;2023-08-30T17:45:58;100267.22;;;19.03;61.89
78623;BME280;67943;54.412;9.502;2023-08-30T17:51:01;100259.13;;;19.05;61.91
78623;BME280;67943;54.412;9.502;2023-08-30T17:56:03;100263.78;;;19.01;62.29
78623;BME280;67943;54.412;9.502;2023-08-30T18:01:07;100256.09;;;18.97;62.86
78623;BME280;67943;54.412;9.502;2023-08-30T18:06:11;100262.47;;;18.94;63.59
78623;BME280;67943;54.412;9.502;2023-08-30T18:11:16;100252.75;;;18.93;63.62
78623;BME280;67943;54.412;9.502;2023-08-30T18:16:18;100254.97;;;18.86;64.09
78623;BME280;67943;54.412;9.502;2023-08-30T18:21:23;100255.25;;;18.82;64.23
78623;BME280;67943;54.412;9.502;2023-08-30T18:26:24;100261.09;;;18.74;64.45
78623;BME280;67943;54.412;9.502;2023-08-30T18:31:25;100256.34;;;18.65;64.65
78623;BME280;67943;54.412;9.502;2023-08-30T18:36:29;100259.44;;;18.58;64.99
78623;BME280;67943;54.412;9.502;2023-08-30T18:41:30;100257.25;;;18.50;65.01
78623;BME280;67943;54.412;9.502;2023-08-30T18:46:31;100264.72;;;18.45;65.47
78623;BME280;67943;54.412;9.502;2023-08-30T18:51:34;100269.81;;;18.19;66.43
78623;BME280;67943;54.412;9.502;2023-08-30T18:56:36;100274.56;;;18.00;67.50
78623;BME280;67943;54.412;9.502;2023-08-30T19:01:37;100274.56;;;18.00;67.53
78623;BME280;67943;54.412;9.502;2023-08-30T19:06:40;100271.50;;;17.92;67.77
78623;BME280;67943;54.412;9.502;2023-08-30T19:11:42;100262.19;;;17.85;68.04
78623;BME280;67943;54.412;9.502;2023-08-30T19:16:43;100251.47;;;17.86;67.85
78623;BME280;67943;54.412;9.502;2023-08-30T19:21:46;100264.53;;;17.75;68.29
78623;BME280;67943;54.412;9.502;2023-08-30T19:26:47;100255.97;;;17.70;68.46
78623;BME280;67943;54.412;9.502;2023-08-30T19:31:49;100258.47;;;17.58;68.72
78623;BME280;67943;54.412;9.502;2023-08-30T19:36:52;100246.41;;;17.52;68.83
78623;BME280;67943;54.412;9.502;2023-08-30T19:41:54;100253.09;;;17.43;69.31
78623;BME280;67943;54.412;9.502;2023-08-30T19:46:55;100244.72;;;17.35;69.47
78623;BME280;67943;54.412;9.502;2023-08-30T19:51:58;100234.47;;;17.29;69.93
78623;BME280;67943;54.412;9.502;2023-08-30T19:57:00;100239.78;;;17.29;69.94
78623;BME280;67943;54.412;9.502;2023-08-30T20:02:02;100236.09;;;17.16;70.23
78623;BME280;67943;54.412;9.502;2023-08-30T20:07:06;100241.00;;;17.08;70.76
78623;BME280;67943;54.412;9.502;2023-08-30T20:12:08;100237.56;;;17.06;70.67
78623;BME280;67943;54.412;9.502;2023-08-30T20:17:09;100246.69;;;17.02;71.01
78623;BME280;67943;54.412;9.502;2023-08-30T20:22:12;100241.38;;;17.02;70.90
78623;BME280;67943;54.412;9.502;2023-08-30T20:27:14;100243.59;;;16.94;71.17
78623;BME280;67943;54.412;9.502;2023-08-30T20:32:15;100242.91;;;16.90;71.72
78623;BME280;67943;54.412;9.502;2023-08-30T20:37:20;100248.22;;;16.90;72.06
78623;BME280;67943;54.412;9.502;2023-08-30T20:42:22;100247.78;;;16.98;71.88
78623;BME280;67943;54.412;9.502;2023-08-30T20:47:23;100246.84;;;16.99;72.22
78623;BME280;67943;54.412;9.502;2023-08-30T20:52:26;100238.78;;;16.84;73.11
78623;BME280;67943;54.412;9.502;2023-08-30T20:57:27;100234.19;;;16.72;73.88
78623;BME280;67943;54.412;9.502;2023-08-30T21:02:29;100229.34;;;16.79;73.93
78623;BME280;67943;54.412;9.502;2023-08-30T21:07:34;100239.38;;;16.90;74.08
78623;BME280;67943;54.412;9.502;2023-08-30T21:12:36;100233.81;;;16.78;74.51
78623;BME280;67943;54.412;9.502;2023-08-30T21:17:37;100224.22;;;16.76;74.85
78623;BME280;67943;54.412;9.502;2023-08-30T21:22:40;100223.19;;;16.78;75.32
78623;BME280;67943;54.412;9.502;2023-08-30T21:27:41;100217.81;;;16.64;76.09
78623;BME280;67943;54.412;9.502;2023-08-30T21:32:43;100233.41;;;16.70;76.36
78623;BME280;67943;54.412;9.502;2023-08-30T21:37:49;100228.91;;;16.55;77.25
78623;BME280;67943;54.412;9.502;2023-08-30T21:42:50;100221.09;;;16.52;77.68
78623;BME280;67943;54.412;9.502;2023-08-30T21:47:52;100228.66;;;16.44;78.37
78623;BME280;67943;54.412;9.502;2023-08-30T21:52:54;100222.34;;;16.29;79.26
78623;BME280;67943;54.412;9.502;2023-08-30T21:57:56;100232.03;;;16.30;79.61
78623;BME280;67943;54.412;9.502;2023-08-30T22:02:59;100239.47;;;16.24;79.83
78623;BME280;67943;54.412;9.502;2023-08-30T22:08:03;100235.09;;;16.23;80.40
78623;BME280;67943;54.412;9.502;2023-08-30T22:13:05;100233.38;;;16.21;80.56
78623;BME280;67943;54.412;9.502;2023-08-30T22:18:08;100228.38;;;16.33;80.36
78623;BME280;67943;54.412;9.502;2023-08-30T22:23:10;100221.34;;;16.32;80.63
78623;BME280;67943;54.412;9.502;2023-08-30T22:28:12;100226.88;;;16.11;81.34
78623;BME280;67943;54.412;9.502;2023-08-30T22:33:14;100225.63;;;16.01;82.10
78623;BME280;67943;54.412;9.502;2023-08-30T22:38:17;100223.03;;;15.84;82.96
78623;BME280;67943;54.412;9.502;2023-08-30T22:43:18;100221.78;;;15.74;83.10
78623;BME280;67943;54.412;9.502;2023-08-30T22:48:20;100237.06;;;15.69;83.44
78623;BME280;67943;54.412;9.502;2023-08-30T22:53:23;100242.09;;;15.58;83.90
78623;BME280;67943;54.412;9.502;2023-08-30T22:58:25;100231.59;;;15.54;84.23
78623;BME280;67943;54.412;9.502;2023-08-30T23:03:26;100230.19;;;15.47;84.42
78623;BME280;67943;54.412;9.502;2023-08-30T23:08:30;100234.53;;;15.31;85.11
78623;BME280;67943;54.412;9.502;2023-08-30T23:13:32;100239.84;;;15.31;84.88
78623;BME280;67943;54.412;9.502;2023-08-30T23:18:33;100238.75;;;15.18;85.82
78623;BME280;67943;54.412;9.502;2023-08-30T23:23:36;100242.25;;;15.18;85.48
78623;BME280;67943;54.412;9.502;2023-08-30T23:28:38;100238.88;;;15.15;85.40
78623;BME280;67943;54.412;9.502;2023-08-30T23:33:40;100225.78;;;15.12;85.75
78623;BME280;67943;54.412;9.502;2023-08-30T23:38:43;100229.38;;;15.11;85.53
78623;BME280;67943;54.412;9.502;2023-08-30T23:43:45;100229.38;;;15.11;85.26
78623;BME280;67943;54.412;9.502;2023-08-30T23:48:46;100218.00;;;15.09;85.49
78623;BME280;67943;54.412;9.502;2023-08-30T23:53:49;100216.28;;;15.08;85.81
78623;BME280;67943;54.412;9.502;2023-08-30T23:58:51;100227.59;;;15.11;84.94
